createdAt,value
2023-03-29T00:01:57.368Z,101090.09
2023-03-29T00:04:29.867Z,101085.39
2023-03-29T00:07:05.224Z,101084.19
2023-03-29T00:09:34.483Z,101080.82
2023-03-29T00:12:05.001Z,101074.71
2023-03-29T00:15:07.224Z,101075.94
2023-03-29T00:17:40.135Z,101071.23
2023-03-29T00:20:18.006Z,101073.92
2023-03-29T00:22:52.923Z,101077.27
2023-03-29T00:25:22.875Z,101071.98
2023-03-29T00:28:04.876Z,101074.11
2023-03-29T00:30:37.951Z,101075.77
2023-03-29T00:33:11.720Z,101074.67
2023-03-29T00:35:43.306Z,101074.47
2023-03-29T00:38:16.179Z,101070.59
2023-03-29T00:40:52.327Z,101070.56
2023-03-29T00:43:27.692Z,101076.21
2023-03-29T00:46:03.278Z,101075.55
2023-03-29T00:48:36.304Z,101072.45
2023-03-29T00:51:21.549Z,101074.95
2023-03-29T00:54:06.707Z,101072.52
2023-03-29T00:56:53.373Z,101069.70
2023-03-29T00:59:33.117Z,101067.55
2023-03-29T01:02:09.733Z,101064.52
2023-03-29T01:04:58.470Z,101061.29
2023-03-29T01:07:38.436Z,101055.68
2023-03-29T01:10:28.890Z,101050.45
2023-03-29T01:13:13.692Z,101049.83
2023-03-29T01:15:47.478Z,101050.79
2023-03-29T01:18:25.856Z,101047.11
2023-03-29T01:21:11.495Z,101045.42
2023-03-29T01:24:07.427Z,101038.70
2023-03-29T01:27:03.722Z,101035.88
2023-03-29T01:29:45.008Z,101031.66
2023-03-29T01:32:38.678Z,101030.00
2023-03-29T01:35:31.368Z,101023.02
2023-03-29T01:38:44.280Z,101019.96
2023-03-29T01:41:23.179Z,101022.02
2023-03-29T01:44:10.669Z,101023.02
2023-03-29T01:47:00.722Z,101022.58
2023-03-29T01:49:44.265Z,101020.81
2023-03-29T01:52:37.322Z,101015.27
2023-03-29T01:55:23.033Z,101015.16
2023-03-29T01:58:00.087Z,101017.88
2023-03-29T02:00:37.762Z,101020.69
2023-03-29T02:03:19.605Z,101019.42
2023-03-29T02:05:58.394Z,101016.93
2023-03-29T02:08:37.409Z,101020.38
2023-03-29T02:11:22.255Z,101019.08
2023-03-29T02:13:57.269Z,101018.29
2023-03-29T02:16:46.780Z,101019.38
2023-03-29T02:19:25.792Z,101017.85
2023-03-29T02:22:11.030Z,101017.23
2023-03-29T02:24:54.000Z,101014.77
2023-03-29T02:27:30.282Z,101013.64
2023-03-29T02:30:02.713Z,101014.34
2023-03-29T02:33:18.394Z,101012.89
2023-03-29T02:36:52.250Z,101015.17
2023-03-29T02:39:33.289Z,101015.71
2023-03-29T02:42:36.836Z,101016.02
2023-03-29T02:45:18.448Z,101018.30
2023-03-29T02:47:57.086Z,101014.16
2023-03-29T02:50:56.780Z,101015.13
2023-03-29T02:53:47.044Z,101016.45
2023-03-29T02:56:27.999Z,101014.46
2023-03-29T02:59:09.743Z,101010.29
2023-03-29T03:01:45.858Z,101009.65
2023-03-29T03:04:21.180Z,101010.49
2023-03-29T03:06:56.975Z,101005.52
2023-03-29T03:09:32.162Z,101003.53
2023-03-29T03:12:04.678Z,101006.85
2023-03-29T03:14:36.761Z,101005.45
2023-03-29T03:17:07.816Z,101002.85
2023-03-29T03:19:47.975Z,100999.05
2023-03-29T03:22:24.613Z,100994.71
2023-03-29T03:25:02.458Z,100992.60
2023-03-29T03:27:38.593Z,100994.17
2023-03-29T03:30:18.134Z,100998.00
2023-03-29T03:33:27.274Z,100996.19
2023-03-29T03:36:35.188Z,100991.48
2023-03-29T03:39:08.598Z,100988.98
2023-03-29T03:41:46.500Z,100989.73
2023-03-29T03:44:33.558Z,100989.59
2023-03-29T03:47:23.516Z,100985.62
2023-03-29T03:49:54.486Z,100981.12
2023-03-29T03:52:33.813Z,100982.79
2023-03-29T03:55:09.151Z,100986.38
2023-03-29T03:57:49.917Z,100985.60
2023-03-29T04:00:22.595Z,100981.73
2023-03-29T04:02:59.613Z,100982.77
2023-03-29T04:05:34.818Z,100983.54
2023-03-29T04:08:07.882Z,100984.58
2023-03-29T04:10:58.677Z,100987.66
2023-03-29T04:13:39.069Z,100990.36
2023-03-29T04:16:32.571Z,100990.27
2023-03-29T04:19:13.178Z,100991.02
2023-03-29T04:21:46.116Z,100989.36
2023-03-29T04:24:17.610Z,100993.24
2023-03-29T04:26:56.806Z,100992.27
2023-03-29T04:29:35.908Z,100987.66
2023-03-29T04:32:22.749Z,100988.38
2023-03-29T04:35:06.936Z,100987.27
2023-03-29T04:37:45.291Z,100988.24
2023-03-29T04:40:20.839Z,100992.56
2023-03-29T04:43:06.578Z,100988.18
2023-03-29T04:45:43.388Z,100985.14
2023-03-29T04:48:21.151Z,100987.35
2023-03-29T04:51:03.647Z,100982.73
2023-03-29T04:53:43.210Z,100986.64
2023-03-29T04:56:17.814Z,100986.27
2023-03-29T04:59:17.321Z,100987.80
2023-03-29T05:01:48.069Z,100985.39
2023-03-29T05:04:22.284Z,100986.42
2023-03-29T05:07:23.778Z,100984.94
2023-03-29T05:10:10.893Z,100982.37
2023-03-29T05:13:03.259Z,100977.89
2023-03-29T05:15:46.682Z,100971.59
2023-03-29T05:18:18.680Z,100967.52
2023-03-29T05:20:56.144Z,100968.54
2023-03-29T05:23:31.320Z,100960.91
2023-03-29T05:26:15.588Z,100960.95
2023-03-29T05:28:59.015Z,100961.08
2023-03-29T05:31:32.915Z,100961.93
2023-03-29T05:34:10.331Z,100964.61
2023-03-29T05:36:53.700Z,100966.20
2023-03-29T05:39:29.412Z,100966.39
2023-03-29T05:42:03.540Z,100966.08
2023-03-29T05:44:47.834Z,100964.38
2023-03-29T05:47:28.975Z,100963.91
2023-03-29T05:50:10.803Z,100966.73
2023-03-29T05:52:49.992Z,100968.84
2023-03-29T05:55:25.777Z,100959.73
2023-03-29T05:57:58.773Z,100956.10
2023-03-29T06:00:34.873Z,100956.89
2023-03-29T06:03:25.650Z,100953.92
2023-03-29T06:06:20.629Z,100951.75
2023-03-29T06:08:54.135Z,100950.42
2023-03-29T06:11:41.259Z,100950.13
2023-03-29T06:14:35.986Z,100943.66
2023-03-29T06:17:39.963Z,100944.71
2023-03-29T06:20:17.431Z,100947.34
2023-03-29T06:22:52.896Z,100950.49
2023-03-29T06:25:26.117Z,100955.86
2023-03-29T06:28:01.627Z,100951.59
2023-03-29T06:30:35.274Z,100950.54
2023-03-29T06:33:11.728Z,100949.09
2023-03-29T06:36:14.114Z,100947.83
2023-03-29T06:38:46.346Z,100946.61
2023-03-29T06:41:30.639Z,100947.55
2023-03-29T06:44:20.231Z,100945.76
2023-03-29T06:47:02.184Z,100944.52
2023-03-29T06:49:37.531Z,100942.29
2023-03-29T06:52:23.103Z,100942.36
2023-03-29T06:54:57.546Z,100943.73
2023-03-29T06:57:36.620Z,100942.46
2023-03-29T07:00:32.515Z,100941.46
2023-03-29T07:03:20.404Z,100942.70
2023-03-29T07:06:16.607Z,100943.13
2023-03-29T07:08:54.603Z,100938.95
2023-03-29T07:11:40.539Z,100936.75
2023-03-29T07:14:31.536Z,100936.40
2023-03-29T07:17:12.263Z,100932.30
2023-03-29T07:19:55.135Z,100930.91
2023-03-29T07:23:10.837Z,100930.56
2023-03-29T07:26:00.523Z,100930.89
2023-03-29T07:28:40.864Z,100927.68
2023-03-29T07:31:28.281Z,100929.83
2023-03-29T07:34:08.707Z,100925.94
2023-03-29T07:37:04.090Z,100926.39
2023-03-29T07:39:45.465Z,100921.66
2023-03-29T07:42:43.675Z,100917.55
2023-03-29T07:45:30.046Z,100918.70
2023-03-29T07:48:35.487Z,100918.98
2023-03-29T07:51:17.170Z,100918.29
2023-03-29T07:54:16.158Z,100920.55
2023-03-29T07:57:27.588Z,100922.56
2023-03-29T08:00:22.458Z,100917.66
2023-03-29T08:03:30.355Z,100913.89
2023-03-29T08:06:11.831Z,100915.27
2023-03-29T08:09:02.242Z,100914.11
2023-03-29T08:11:43.414Z,100910.98
2023-03-29T08:14:38.112Z,100907.13
2023-03-29T08:17:40.162Z,100906.55
2023-03-29T08:20:40.685Z,100905.48
2023-03-29T08:23:14.447Z,100904.48
2023-03-29T08:26:23.964Z,100899.33
2023-03-29T08:28:57.680Z,100900.60
2023-03-29T08:31:29.684Z,100898.51
2023-03-29T08:34:03.804Z,100897.48
2023-03-29T08:37:01.115Z,100897.27
2023-03-29T08:39:42.125Z,100893.77
2023-03-29T08:43:04.355Z,100893.92
2023-03-29T08:46:16.753Z,100892.29
2023-03-29T08:49:07.586Z,100889.39
2023-03-29T08:51:53.482Z,100886.00
2023-03-29T08:54:49.073Z,100881.27
2023-03-29T08:57:48.339Z,100883.36
2023-03-29T09:00:43.487Z,100871.86
2023-03-29T09:03:31.880Z,100873.25
2023-03-29T09:06:18.494Z,100873.48
2023-03-29T09:09:00.796Z,100869.02
2023-03-29T09:11:51.068Z,100866.75
2023-03-29T09:14:30.647Z,100866.69
2023-03-29T09:17:31.975Z,100865.11
2023-03-29T09:20:24.060Z,100865.84
2023-03-29T09:23:47.899Z,100859.53
2023-03-29T09:30:56.845Z,100853.02
2023-03-29T09:34:10.586Z,100846.71
2023-03-29T09:37:21.733Z,100848.61
2023-03-29T09:40:04.649Z,100849.02
2023-03-29T09:42:55.552Z,100847.58
2023-03-29T09:45:53.376Z,100843.84
2023-03-29T09:48:41.278Z,100839.65
2023-03-29T09:51:18.127Z,100838.42
2023-03-29T09:53:50.396Z,100837.32
2023-03-29T09:56:47.116Z,100836.54
2023-03-29T09:59:25.324Z,100831.39
2023-03-29T10:02:14.942Z,100828.76
2023-03-29T10:04:48.389Z,100827.83
2023-03-29T10:07:21.045Z,100825.43
2023-03-29T10:09:57.882Z,100824.79
2023-03-29T10:12:37.236Z,100820.14
2023-03-29T10:15:26.612Z,100816.55
2023-03-29T10:18:15.056Z,100812.35
2023-03-29T10:20:48.421Z,100812.91
2023-03-29T10:23:22.368Z,100808.86
2023-03-29T10:26:04.577Z,100808.46
2023-03-29T10:28:40.515Z,100800.71
2023-03-29T10:31:25.899Z,100802.80
2023-03-29T10:34:11.950Z,100804.32
2023-03-29T10:36:50.617Z,100793.92
2023-03-29T10:39:20.929Z,100790.55
2023-03-29T10:41:53.513Z,100788.83
2023-03-29T10:44:36.914Z,100786.39
2023-03-29T10:47:29.130Z,100783.53
2023-03-29T10:49:59.249Z,100784.48
2023-03-29T10:52:30.410Z,100783.98
2023-03-29T10:55:02.819Z,100782.30
2023-03-29T10:58:16.619Z,100781.66
2023-03-29T11:01:00.752Z,100776.73
2023-03-29T11:04:17.454Z,100771.41
2023-03-29T11:07:26.544Z,100762.04
2023-03-29T11:10:34.793Z,100759.67
2023-03-29T11:13:34.788Z,100755.19
2023-03-29T11:16:58.255Z,100754.73
2023-03-29T11:20:17.857Z,100746.59
2023-03-29T11:23:16.650Z,100747.45
2023-03-29T11:26:23.846Z,100738.86
2023-03-29T11:29:11.796Z,100736.83
2023-03-29T11:32:28.095Z,100733.31
2023-03-29T11:35:29.739Z,100728.79
2023-03-29T11:38:47.910Z,100726.89
2023-03-29T11:41:44.376Z,100726.30
2023-03-29T11:44:40.143Z,100725.15
2023-03-29T11:47:35.404Z,100719.20
2023-03-29T11:50:59.529Z,100712.58
2023-03-29T11:53:52.236Z,100712.34
2023-03-29T11:57:07.037Z,100709.09
2023-03-29T12:00:20.090Z,100700.80
2023-03-29T12:05:50.549Z,100695.38
2023-03-29T12:08:47.531Z,100695.60
2023-03-29T12:11:49.094Z,100694.19
2023-03-29T12:14:30.144Z,100683.80
2023-03-29T12:17:10.830Z,100673.73
2023-03-29T12:28:12.196Z,100663.79
2023-03-29T12:31:06.611Z,100654.16
2023-03-29T12:38:10.289Z,100651.91
2023-03-29T12:41:25.653Z,100652.30
2023-03-29T12:44:32.329Z,100647.38
2023-03-29T12:47:34.681Z,100643.77
2023-03-29T12:50:32.387Z,100641.10
2023-03-29T12:53:27.893Z,100638.61
2023-03-29T12:56:04.793Z,100632.70
2023-03-29T12:58:43.527Z,100626.75
2023-03-29T13:01:37.917Z,100620.91
2023-03-29T13:04:21.709Z,100621.18
2023-03-29T13:07:09.034Z,100619.56
2023-03-29T13:10:08.365Z,100617.64
2023-03-29T13:12:51.608Z,100622.81
2023-03-29T13:15:41.766Z,100619.17
2023-03-29T13:19:18.636Z,100616.41
2023-03-29T13:22:08.686Z,100614.37
2023-03-29T13:25:41.773Z,100611.88
2023-03-29T13:28:47.480Z,100607.14
2023-03-29T13:31:35.789Z,100607.01
2023-03-29T13:34:20.725Z,100599.80
2023-03-29T13:37:21.361Z,100595.61
2023-03-29T13:39:56.937Z,100596.06
2023-03-29T13:42:46.751Z,100586.02
2023-03-29T13:45:33.206Z,100583.19
2023-03-29T13:48:34.302Z,100581.09
2023-03-29T13:51:35.549Z,100577.79
2023-03-29T13:54:43.089Z,100577.27
2023-03-29T13:58:02.102Z,100572.63
2023-03-29T14:00:54.520Z,100569.56
2023-03-29T14:03:50.263Z,100567.29
2023-03-29T14:06:35.059Z,100574.41
2023-03-29T14:09:09.715Z,100572.08
2023-03-29T14:12:08.315Z,100567.68
2023-03-29T14:14:51.709Z,100563.50
2023-03-29T14:17:37.313Z,100557.17
2023-03-29T14:20:10.297Z,100562.38
2023-03-29T14:23:03.133Z,100562.64
2023-03-29T14:26:09.130Z,100561.34
2023-03-29T14:29:07.819Z,100562.88
2023-03-29T14:31:52.374Z,100554.64
2023-03-29T14:34:39.822Z,100554.65
2023-03-29T14:37:37.524Z,100548.70
2023-03-29T14:40:45.627Z,100553.48
2023-03-29T14:43:39.993Z,100554.34
2023-03-29T14:46:49.024Z,100549.73
2023-03-29T14:50:05.462Z,100546.09
2023-03-29T14:52:52.629Z,100539.17
2023-03-29T14:55:56.401Z,100537.85
2023-03-29T14:58:46.878Z,100536.37
2023-03-29T15:01:49.021Z,100530.97
2023-03-29T15:04:36.556Z,100525.05
2023-03-29T15:09:07.251Z,100521.91
2023-03-29T15:11:42.598Z,100514.17
2023-03-29T15:15:04.235Z,100509.04
2023-03-29T15:17:56.973Z,100507.46
2023-03-29T15:21:07.732Z,100503.86
2023-03-29T15:24:07.821Z,100503.14
2023-03-29T15:27:03.364Z,100501.90
2023-03-29T15:29:51.768Z,100495.75
2023-03-29T15:32:55.040Z,100487.02
2023-03-29T15:36:03.691Z,100485.85
2023-03-29T15:39:05.929Z,100474.88
2023-03-29T15:41:42.038Z,100476.47
2023-03-29T15:44:53.271Z,100479.55
2023-03-29T15:47:36.814Z,100475.10
2023-03-29T15:50:31.750Z,100469.33
2023-03-29T15:53:19.432Z,100466.75
2023-03-29T15:57:31.467Z,100464.50
2023-03-29T16:00:44.710Z,100455.70
2023-03-29T16:03:55.459Z,100455.77
2023-03-29T16:06:53.339Z,100453.20
2023-03-29T16:09:30.244Z,100448.79
2023-03-29T16:12:23.738Z,100444.82
2023-03-29T16:15:01.053Z,100443.76
2023-03-29T16:17:52.416Z,100441.79
2023-03-29T16:21:17.640Z,100437.02
2023-03-29T16:24:17.483Z,100439.55
2023-03-29T16:26:56.992Z,100438.16
2023-03-29T16:29:41.036Z,100436.19
2023-03-29T16:36:10.759Z,100452.92
2023-03-29T16:38:54.400Z,100453.27
2023-03-29T16:41:39.514Z,100459.78
2023-03-29T16:45:01.252Z,100458.26
2023-03-29T16:48:09.993Z,100462.80
2023-03-29T16:50:55.956Z,100457.89
2023-03-29T16:54:43.903Z,100451.80
2023-03-29T16:57:53.243Z,100445.51
2023-03-29T17:03:36.915Z,100436.82
2023-03-29T17:06:50.014Z,100436.27
2023-03-29T17:09:32.771Z,100431.48
2023-03-29T17:12:18.931Z,100428.59
2023-03-29T17:18:03.220Z,100437.42
2023-03-29T17:21:25.118Z,100438.97
2023-03-29T17:24:14.827Z,100442.94
2023-03-29T17:27:34.535Z,100446.15
2023-03-29T17:30:22.589Z,100443.66
2023-03-29T17:33:11.133Z,100448.49
2023-03-29T17:39:45.542Z,100459.34
2023-03-29T17:42:30.136Z,100458.91
2023-03-29T17:45:29.879Z,100457.86
2023-03-29T17:48:26.157Z,100455.42
2023-03-29T17:51:26.603Z,100449.58
2023-03-29T17:55:17.013Z,100450.17
2023-03-29T18:01:54.765Z,100445.34
2023-03-29T18:05:08.499Z,100446.14
2023-03-29T18:09:48.429Z,100449.91
2023-03-29T18:13:27.235Z,100443.97
2023-03-29T18:33:46.070Z,100462.09
2023-03-29T18:43:38.758Z,100458.63
2023-03-29T18:50:25.563Z,100457.77
2023-03-29T18:53:22.567Z,100448.18
2023-03-29T18:56:17.959Z,100448.39
2023-03-29T18:59:11.726Z,100455.05
2023-03-29T19:02:57.895Z,100455.54
2023-03-29T19:06:04.173Z,100450.49
2023-03-29T19:09:02.375Z,100450.59
2023-03-29T19:13:07.527Z,100454.23
2023-03-29T19:16:12.424Z,100458.42
2023-03-29T19:19:12.594Z,100458.81
2023-03-29T19:22:40.347Z,100453.48
2023-03-29T19:25:44.633Z,100448.13
2023-03-29T19:28:38.597Z,100445.39
2023-03-29T19:31:42.108Z,100452.38
2023-03-29T19:34:41.061Z,100449.98
2023-03-29T19:37:57.883Z,100446.20
2023-03-29T19:41:29.816Z,100448.77
2023-03-29T19:44:40.708Z,100447.45
2023-03-29T19:48:21.791Z,100447.73
2023-03-29T19:51:40.718Z,100447.55
2023-03-29T19:54:51.186Z,100442.59
2023-03-29T19:57:45.557Z,100440.54
2023-03-29T20:04:13.456Z,100431.97
2023-03-29T20:07:54.756Z,100430.72
2023-03-29T20:11:52.833Z,100428.38
2023-03-29T20:15:53.710Z,100425.41
2023-03-29T20:27:06.533Z,100414.46
2023-03-29T20:33:20.391Z,100398.52
2023-03-29T20:36:20.444Z,100391.89
2023-03-29T20:39:04.948Z,100392.11
2023-03-29T20:42:04.249Z,100392.48
2023-03-29T20:45:27.526Z,100394.42
2023-03-29T20:48:14.503Z,100389.47
2023-03-29T20:50:59.822Z,100386.72
2023-03-29T20:53:58.904Z,100392.09
2023-03-29T20:56:42.971Z,100394.47
2023-03-29T20:59:39.676Z,100395.66
2023-03-29T21:02:23.380Z,100394.58
2023-03-29T21:05:22.751Z,100393.30
2023-03-29T21:08:18.282Z,100390.99
2023-03-29T21:11:15.934Z,100391.42
2023-03-29T21:14:07.932Z,100388.41
2023-03-29T21:17:02.587Z,100389.72
2023-03-29T21:19:53.465Z,100390.36
2023-03-29T21:22:34.820Z,100389.08
2023-03-29T21:25:28.268Z,100384.45
2023-03-29T21:28:23.622Z,100384.39
2023-03-29T21:31:17.697Z,100389.19
2023-03-29T21:34:30.960Z,100388.60
2023-03-29T21:37:16.342Z,100384.88
2023-03-29T21:40:28.734Z,100383.42
2023-03-29T21:43:25.409Z,100383.36
2023-03-29T21:46:26.808Z,100381.73
2023-03-29T21:52:21.015Z,100374.20
2023-03-29T21:55:12.734Z,100370.55
2023-03-29T21:58:02.849Z,100366.07
2023-03-29T22:00:44.037Z,100366.90
2023-03-29T22:03:28.087Z,100356.64
2023-03-29T22:06:28.419Z,100350.05
2023-03-29T22:09:16.566Z,100351.38
2023-03-29T22:12:07.391Z,100352.38
2023-03-29T22:15:05.412Z,100351.63
2023-03-29T22:17:53.777Z,100350.40
2023-03-29T22:20:42.202Z,100348.25
2023-03-29T22:23:33.457Z,100344.92
2023-03-29T22:26:26.878Z,100346.63
2023-03-29T22:29:16.507Z,100344.36
2023-03-29T22:31:58.344Z,100344.84
2023-03-29T22:35:00.469Z,100345.91
2023-03-29T22:37:56.972Z,100342.61
2023-03-29T22:40:46.227Z,100339.93
2023-03-29T22:43:25.510Z,100331.70
2023-03-29T22:46:20.719Z,100326.66
2023-03-29T22:49:01.931Z,100325.79
2023-03-29T22:51:52.566Z,100328.90
2023-03-29T22:54:49.583Z,100324.77
2023-03-29T22:57:43.727Z,100318.84
2023-03-29T23:01:02.604Z,100313.46
2023-03-29T23:04:01.026Z,100315.46
2023-03-29T23:06:48.491Z,100311.46
2023-03-29T23:09:57.155Z,100313.10
2023-03-29T23:15:47.425Z,100312.26
2023-03-29T23:18:21.131Z,100311.17
2023-03-29T23:20:54.802Z,100311.79
2023-03-29T23:23:25.898Z,100311.77
2023-03-29T23:25:56.551Z,100312.75
2023-03-29T23:28:30.416Z,100309.31
2023-03-29T23:31:03.896Z,100307.60
2023-03-29T23:33:36.075Z,100305.42
2023-03-29T23:36:23.306Z,100308.02
2023-03-29T23:39:11.474Z,100305.98
2023-03-29T23:41:58.438Z,100304.47
2023-03-29T23:44:51.400Z,100295.15
2023-03-29T23:47:34.714Z,100287.84
2023-03-29T23:50:36.442Z,100287.22
2023-03-29T23:53:21.123Z,100293.52
2023-03-29T23:56:17.179Z,100292.66
